Time;durP1;ratioP1;P1;durP2;ratioP2;P2;SDS_P1;SDS_P2;PMS_P1;PMS_P2;Temp;Humidity;BMP_temperature;BMP_pressure;BME280_temperature;BME280_humidity;BME280_pressure;Samples;Min_cycle;Max_cycle;Signal;HPM_P1;HPM_P2
2022/09/12 00:00:09;;;;;;;7.85;6.43;;;;;;;-142.91;100.00;56616.03;5028700;28;20205;-70
2022/09/12 00:02:36;;;;;;;6.10;5.70;;;;;;;-142.91;100.00;56616.03;5024464;28;20202;-69
2022/09/12 00:05:03;;;;;;;6.20;5.80;;;;;;;-142.91;100.00;56616.03;5028954;28;21417;-69
2022/09/12 00:07:30;;;;;;;7.05;6.35;;;;;;;-142.91;100.00;56616.03;5026323;28;20299;-70
2022/09/12 00:09:57;;;;;;;6.13;5.63;;;;;;;-142.91;100.00;56616.03;5027350;28;20543;-68
2022/09/12 00:12:24;;;;;;;6.10;5.80;;;;;;;-142.91;100.00;56616.03;5028215;28;20221;-69
2022/09/12 00:14:51;;;;;;;5.95;5.38;;;;;;;-142.91;100.00;56616.03;5028616;28;20287;-70
2022/09/12 00:17:19;;;;;;;6.75;6.25;;;;;;;-142.91;100.00;56616.03;5028177;28;20207;-69
2022/09/12 00:19:46;;;;;;;6.35;6.00;;;;;;;-142.91;100.00;56616.03;5029119;28;20750;-70
2022/09/12 00:22:12;;;;;;;11.68;6.35;;;;;;;-142.91;100.00;56616.03;5032317;28;20206;-71
2022/09/12 00:24:40;;;;;;;5.70;5.40;;;;;;;-142.91;100.00;56616.03;5032006;28;20762;-70
2022/09/12 00:27:07;;;;;;;6.18;5.68;;;;;;;-142.91;100.00;56616.03;5032558;28;20756;-70
2022/09/12 00:29:33;;;;;;;5.45;5.15;;;;;;;-142.91;100.00;56616.03;5032213;28;20222;-70
2022/09/12 00:32:00;;;;;;;6.82;6.22;;;;;;;-142.91;100.00;56616.03;5029151;28;20481;-70
2022/09/12 00:34:28;;;;;;;5.80;5.40;;;;;;;-142.91;100.00;56616.03;5032216;28;20247;-69
2022/09/12 00:36:55;;;;;;;5.05;4.75;;;;;;;-142.91;100.00;56616.03;5031817;28;20275;-70
2022/09/12 00:39:22;;;;;;;5.45;5.15;;;;;;;-142.91;100.00;56616.03;5031180;28;20203;-71
2022/09/12 00:41:49;;;;;;;5.90;5.22;;;;;;;-142.91;100.00;56616.03;5031896;28;21874;-70
2022/09/12 00:44:43;;;;;;;4.78;4.57;;;;;;;-142.91;100.00;56616.03;5031736;28;20270;-71
2022/09/12 00:47:16;;;;;;;5.72;5.32;;;;;;;-142.91;100.00;56616.03;5017733;28;20206;-69
2022/09/12 00:49:49;;;;;;;5.20;4.90;;;;;;;-142.91;100.00;56616.03;5030756;28;20226;-69
2022/09/12 00:52:23;;;;;;;6.03;5.63;;;;;;;-142.91;100.00;56616.03;5032506;28;20206;-70
2022/09/12 00:54:54;;;;;;;12.50;10.45;;;;;;;-142.91;100.00;56616.03;5032683;28;20266;-70
2022/09/12 00:57:23;;;;;;;12.55;11.25;;;;;;;-142.91;100.00;56616.03;5029514;28;20273;-71
2022/09/12 00:59:53;;;;;;;5.95;5.20;;;;;;;-142.91;100.00;56616.03;5031215;28;20207;-70
2022/09/12 01:02:21;;;;;;;5.50;5.18;;;;;;;-142.91;100.00;56616.03;5032907;28;20629;-70
2022/09/12 01:04:50;;;;;;;6.82;6.15;;;;;;;-142.91;100.00;56616.03;5032171;28;20667;-70
2022/09/12 01:07:17;;;;;;;6.15;5.82;;;;;;;-142.91;100.00;56616.03;5029162;28;20227;-70
2022/09/12 01:09:45;;;;;;;11.65;5.70;;;;;;;-142.91;100.00;56616.03;5032625;28;20230;-70
2022/09/12 01:12:14;;;;;;;6.82;5.88;;;;;;;-142.91;100.00;56616.03;5030147;28;20801;-71
2022/09/12 01:14:41;;;;;;;5.78;5.03;;;;;;;-142.91;100.00;56616.03;5031850;28;20303;-71
2022/09/12 01:17:12;;;;;;;5.57;5.28;;;;;;;-142.91;100.00;56616.03;5030800;28;20214;-71
2022/09/12 01:20:05;;;;;;;5.68;5.28;;;;;;;-142.91;100.00;56616.03;5031212;28;20585;-71
2022/09/12 01:23:02;;;;;;;4.82;4.53;;;;;;;-142.91;100.00;56616.03;5031410;28;20457;-70
2022/09/12 01:25:35;;;;;;;6.03;5.03;;;;;;;-142.91;100.00;56616.03;5029645;28;20651;-69
2022/09/12 01:28:34;;;;;;;5.10;4.78;;;;;;;-142.91;100.00;56616.03;5027009;28;20731;-69
2022/09/12 01:31:05;;;;;;;5.35;5.00;;;;;;;-142.91;100.00;56616.03;5029651;28;21872;-72
2022/09/12 01:33:51;;;;;;;7.03;6.43;;;;;;;-142.91;100.00;56616.03;5030088;28;20210;-70
2022/09/12 01:36:44;;;;;;;5.93;5.43;;;;;;;-142.91;100.00;56616.03;5030984;28;20198;-69
2022/09/12 01:39:25;;;;;;;4.88;4.57;;;;;;;-142.91;100.00;56616.03;5021513;28;20597;-70
2022/09/12 01:41:58;;;;;;;7.10;4.68;;;;;;;-142.91;100.00;56616.03;5029037;28;20794;-72
2022/09/12 01:44:37;;;;;;;4.75;4.43;;;;;;;-142.91;100.00;56616.03;5031401;28;20202;-71
2022/09/12 01:47:12;;;;;;;5.32;4.88;;;;;;;-142.91;100.00;56616.03;5030837;28;20213;-70
2022/09/12 01:49:45;;;;;;;4.95;4.65;;;;;;;-142.91;100.00;56616.03;5032092;28;20214;-71
2022/09/12 01:52:18;;;;;;;5.63;5.30;;;;;;;-142.91;100.00;56616.03;5028196;28;20344;-71
2022/09/12 01:54:49;;;;;;;3.55;3.35;;;;;;;-142.91;100.00;56616.03;5030620;28;20231;-71
2022/09/12 01:57:23;;;;;;;4.47;4.18;;;;;;;-142.91;100.00;56616.03;5029169;28;20313;-71
2022/09/12 01:59:56;;;;;;;5.40;4.05;;;;;;;-142.91;100.00;56616.03;5030537;28;20675;-69
2022/09/12 02:02:31;;;;;;;5.90;4.32;;;;;;;-142.91;100.00;56616.03;5029615;28;20203;-70
2022/09/12 02:05:02;;;;;;;4.38;4.10;;;;;;;-142.91;100.00;56616.03;5027982;28;20206;-70
2022/09/12 02:07:34;;;;;;;4.60;4.20;;;;;;;-142.91;100.00;56616.03;5027581;28;20279;-70
2022/09/12 02:10:06;;;;;;;4.68;4.38;;;;;;;-142.91;100.00;56616.03;5028011;28;20604;-71
2022/09/12 02:12:39;;;;;;;5.47;4.00;;;;;;;-142.91;100.00;56616.03;5027946;28;20216;-71
2022/09/12 02:15:09;;;;;;;4.45;4.05;;;;;;;-142.91;100.00;56616.03;5028608;28;20214;-70
2022/09/12 02:17:41;;;;;;;4.53;4.22;;;;;;;-142.91;100.00;56616.03;5027485;28;20217;-71
2022/09/12 02:20:14;;;;;;;3.85;3.65;;;;;;;-142.91;100.00;56616.03;5029041;28;20457;-71
2022/09/12 02:22:42;;;;;;;3.63;3.40;;;;;;;-142.91;100.00;56616.03;5026042;28;21196;-70
2022/09/12 02:25:13;;;;;;;5.15;3.92;;;;;;;-142.91;100.00;56616.03;5027373;28;20230;-71
2022/09/12 02:27:44;;;;;;;5.32;4.03;;;;;;;-142.91;100.00;56616.03;5026750;28;20871;-69
2022/09/12 02:30:13;;;;;;;6.45;3.55;;;;;;;-142.91;100.00;56616.03;5029772;28;20270;-69
2022/09/12 02:32:54;;;;;;;3.63;3.30;;;;;;;-142.91;100.00;56616.03;5027601;28;20206;-71
2022/09/12 02:35:32;;;;;;;3.45;3.25;;;;;;;-142.91;100.00;56616.03;5027991;28;20334;-70
2022/09/12 02:38:03;;;;;;;4.13;3.45;;;;;;;-142.91;100.00;56616.03;5027239;28;20206;-69
2022/09/12 02:40:31;;;;;;;3.75;3.45;;;;;;;-142.91;100.00;56616.03;5029621;28;20209;-71
2022/09/12 02:42:58;;;;;;;3.63;3.42;;;;;;;-142.91;100.00;56616.03;5028187;28;20777;-70
2022/09/12 02:45:25;;;;;;;4.82;3.45;;;;;;;-142.91;100.00;56616.03;5029828;28;20234;-71
2022/09/12 02:48:00;;;;;;;3.78;3.22;;;;;;;-142.91;100.00;56616.03;5028895;28;20691;-70
2022/09/12 02:50:27;;;;;;;2.78;2.67;;;;;;;-142.91;100.00;56616.03;5028822;28;20229;-71
2022/09/12 02:52:58;;;;;;;3.17;2.97;;;;;;;-142.91;100.00;56616.03;5029409;28;20259;-69
2022/09/12 02:55:25;;;;;;;3.85;3.35;;;;;;;-142.91;100.00;56616.03;5028935;28;21911;-70
2022/09/12 02:57:52;;;;;;;4.15;3.75;;;;;;;-142.91;100.00;56616.03;5029066;28;20331;-71
2022/09/12 03:00:19;;;;;;;3.10;2.80;;;;;;;-142.91;100.00;56616.03;5030234;28;20231;-70
2022/09/12 03:03:05;;;;;;;3.55;3.35;;;;;;;-142.91;100.00;56616.03;5029956;28;20214;-70
2022/09/12 03:05:34;;;;;;;3.15;2.95;;;;;;;-142.91;100.00;56616.03;5053731;22;20308;-69
2022/09/12 03:08:33;;;;;;;4.15;2.95;;;;;;;-142.91;100.00;56616.03;5047764;28;20206;-69
2022/09/12 03:11:23;;;;;;;3.15;2.90;;;;;;;-142.91;100.00;56616.03;5048988;28;20283;-70
2022/09/12 03:14:01;;;;;;;3.75;3.20;;;;;;;-142.91;100.00;56616.03;5049307;28;20293;-71
2022/09/12 03:16:35;;;;;;;3.38;3.08;;;;;;;-142.91;100.00;56616.03;5048302;28;20216;-70
2022/09/12 03:19:13;;;;;;;3.63;3.33;;;;;;;-142.91;100.00;56616.03;5049627;28;20727;-70
2022/09/12 03:21:49;;;;;;;4.20;3.10;;;;;;;-142.91;100.00;56616.03;5049740;28;20274;-70
2022/09/12 03:24:20;;;;;;;3.97;3.45;;;;;;;-142.91;100.00;56616.03;5049324;28;20584;-71
2022/09/12 03:26:52;;;;;;;4.32;3.47;;;;;;;-142.91;100.00;56616.03;5048250;28;20209;-71
2022/09/12 03:29:21;;;;;;;8.55;4.85;;;;;;;-142.91;100.00;56616.03;5048200;28;20266;-70
2022/09/12 03:31:51;;;;;;;5.85;3.47;;;;;;;-142.91;100.00;56616.03;5047963;28;22158;-70
2022/09/12 03:34:20;;;;;;;4.65;3.45;;;;;;;-142.91;100.00;56616.03;5048952;28;20249;-71
2022/09/12 03:36:47;;;;;;;3.80;3.53;;;;;;;-142.91;100.00;56616.03;5047581;28;21664;-71
2022/09/12 03:39:14;;;;;;;5.00;3.28;;;;;;;-142.91;100.00;56616.03;5048653;28;20671;-70
2022/09/12 03:41:41;;;;;;;3.97;3.78;;;;;;;-142.91;100.00;56616.03;5049015;28;20291;-70
2022/09/12 03:44:07;;;;;;;3.90;3.60;;;;;;;-142.91;100.00;56616.03;5049503;28;20686;-71
2022/09/12 03:46:34;;;;;;;6.78;6.20;;;;;;;-142.91;100.00;56616.03;5048731;28;20224;-68
2022/09/12 03:49:01;;;;;;;10.57;9.18;;;;;;;-142.91;100.00;56616.03;5047896;28;20259;-68
2022/09/12 03:51:29;;;;;;;5.95;5.60;;;;;;;-142.91;100.00;56616.03;5050098;28;20290;-69
2022/09/12 03:53:56;;;;;;;12.02;10.77;;;;;;;-142.91;100.00;56616.03;5047945;28;20270;-69
2022/09/12 03:56:23;;;;;;;11.55;6.82;;;;;;;-142.91;100.00;56616.03;5050552;28;20220;-70
2022/09/12 03:58:50;;;;;;;6.22;4.93;;;;;;;-142.91;100.00;56616.03;5054105;28;20870;-70
2022/09/12 04:01:20;;;;;;;4.20;3.83;;;;;;;-142.91;100.00;56616.03;5050653;28;20256;-70
2022/09/12 04:03:50;;;;;;;4.63;4.32;;;;;;;-142.91;100.00;56616.03;5051393;28;20268;-70
2022/09/12 04:06:18;;;;;;;4.45;4.15;;;;;;;-142.91;100.00;56616.03;5050595;28;20310;-70
2022/09/12 04:08:50;;;;;;;4.32;3.83;;;;;;;-142.91;100.00;56616.03;5050065;28;20205;-71
2022/09/12 04:11:18;;;;;;;3.88;3.58;;;;;;;-142.91;100.00;56616.03;5051247;28;20225;-69
2022/09/12 04:13:46;;;;;;;11.60;10.13;;;;;;;-142.91;100.00;56616.03;5053084;28;20210;-71
2022/09/12 04:16:14;;;;;;;11.68;9.48;;;;;;;-142.91;100.00;56616.03;5051116;28;20785;-71
2022/09/12 04:18:41;;;;;;;11.25;6.85;;;;;;;-142.91;100.00;56616.03;5051825;28;20194;-69
2022/09/12 04:21:11;;;;;;;7.07;5.97;;;;;;;-142.91;100.00;56616.03;5052787;28;21770;-69
2022/09/12 04:23:37;;;;;;;4.75;4.35;;;;;;;-142.91;100.00;56616.03;5052593;28;20646;-70
2022/09/12 04:26:07;;;;;;;6.90;5.65;;;;;;;-142.91;100.00;56616.03;5052647;28;20224;-70
2022/09/12 04:28:35;;;;;;;93.03;52.35;;;;;;;-142.91;100.00;56616.03;5052045;28;20263;-69
2022/09/12 04:31:03;;;;;;;13.60;8.73;;;;;;;-142.91;100.00;56616.03;5052265;28;20795;-70
2022/09/12 04:33:30;;;;;;;6.38;5.78;;;;;;;-142.91;100.00;56616.03;5052108;28;20300;-69
2022/09/12 04:36:02;;;;;;;7.13;5.25;;;;;;;-142.91;100.00;56616.03;5050829;28;20229;-69
2022/09/12 04:38:29;;;;;;;5.65;5.00;;;;;;;-142.91;100.00;56616.03;5050229;28;20221;-70
2022/09/12 04:40:55;;;;;;;6.38;5.22;;;;;;;-142.91;100.00;56616.03;5051900;28;20232;-69
2022/09/12 04:43:24;;;;;;;5.63;5.13;;;;;;;-142.91;100.00;56616.03;5052516;28;20601;-71
2022/09/12 04:45:51;;;;;;;6.05;5.47;;;;;;;-142.91;100.00;56616.03;5051688;28;20290;-69
2022/09/12 04:48:17;;;;;;;7.07;5.50;;;;;;;-142.91;100.00;56616.03;5050919;28;20287;-70
2022/09/12 04:50:44;;;;;;;21.92;15.88;;;;;;;-142.91;100.00;56616.03;5052231;28;20234;-71
2022/09/12 04:53:11;;;;;;;8.63;7.82;;;;;;;-142.91;100.00;56616.03;5050415;28;20241;-68
2022/09/12 04:55:38;;;;;;;8.27;6.00;;;;;;;-142.91;100.00;56616.03;5051927;28;20936;-69
2022/09/12 04:58:04;;;;;;;8.60;6.13;;;;;;;-142.91;100.00;56616.03;5050097;28;20214;-71
2022/09/12 05:00:33;;;;;;;6.40;5.57;;;;;;;-142.91;100.00;56616.03;5051307;28;20206;-69
2022/09/12 05:03:00;;;;;;;5.72;5.10;;;;;;;-142.91;100.00;56616.03;5051570;28;20212;-68
2022/09/12 05:05:27;;;;;;;5.07;4.57;;;;;;;-142.91;100.00;56616.03;5050080;28;20233;-70
2022/09/12 05:07:53;;;;;;;5.30;4.78;;;;;;;-142.91;100.00;56616.03;5049855;28;20267;-71
2022/09/12 05:10:22;;;;;;;5.55;5.05;;;;;;;-142.91;100.00;56616.03;5052371;28;20205;-70
2022/09/12 05:12:49;;;;;;;6.97;4.30;;;;;;;-142.91;100.00;56616.03;5050893;28;20299;-70
2022/09/12 05:15:16;;;;;;;4.40;4.00;;;;;;;-142.91;100.00;56616.03;5050651;28;20405;-68
2022/09/12 05:17:45;;;;;;;4.82;3.90;;;;;;;-142.91;100.00;56616.03;5049960;28;20671;-67
2022/09/12 05:20:12;;;;;;;5.88;4.13;;;;;;;-142.91;100.00;56616.03;5050332;28;20202;-68
2022/09/12 05:22:39;;;;;;;4.53;4.22;;;;;;;-142.91;100.00;56616.03;5051329;28;21603;-70
2022/09/12 05:25:07;;;;;;;5.15;4.50;;;;;;;-142.91;100.00;56616.03;5051522;28;20225;-69
2022/09/12 05:27:34;;;;;;;4.35;3.95;;;;;;;-142.91;100.00;56616.03;5051173;28;20202;-69
2022/09/12 05:30:01;;;;;;;7.15;5.07;;;;;;;-142.91;100.00;56616.03;5049717;28;20751;-69
2022/09/12 05:32:31;;;;;;;4.57;4.28;;;;;;;-142.91;100.00;56616.03;5052503;28;20225;-70
2022/09/12 05:34:59;;;;;;;7.70;4.90;;;;;;;-142.91;100.00;56616.03;5051853;28;20308;-70
2022/09/12 05:37:26;;;;;;;4.53;3.80;;;;;;;-142.91;100.00;56616.03;5048798;28;20627;-69
2022/09/12 05:39:53;;;;;;;6.07;4.05;;;;;;;-142.91;100.00;56616.03;5049194;28;20213;-69
2022/09/12 05:42:20;;;;;;;7.45;4.30;;;;;;;-142.91;100.00;56616.03;5050971;28;20714;-70
2022/09/12 05:44:47;;;;;;;7.63;3.30;;;;;;;-142.91;100.00;56616.03;5054163;28;20232;-69
2022/09/12 05:47:15;;;;;;;5.13;3.42;;;;;;;-142.91;100.00;56616.03;5053533;28;20206;-68
2022/09/12 05:49:44;;;;;;;5.88;3.35;;;;;;;-142.91;100.00;56616.03;5050360;28;20585;-70
2022/09/12 05:52:12;;;;;;;4.13;3.58;;;;;;;-142.91;100.00;56616.03;5049586;28;20230;-69
2022/09/12 05:54:40;;;;;;;4.40;3.70;;;;;;;-142.91;100.00;56616.03;5050259;28;20587;-70
2022/09/12 05:57:06;;;;;;;4.50;3.80;;;;;;;-142.91;100.00;56616.03;5050113;28;20213;-70
2022/09/12 05:59:33;;;;;;;3.67;3.47;;;;;;;-142.91;100.00;56616.03;5048991;28;20213;-68
2022/09/12 06:02:00;;;;;;;3.90;3.58;;;;;;;-142.91;100.00;56616.03;5050639;28;20631;-68
2022/09/12 06:04:27;;;;;;;3.30;3.10;;;;;;;-142.91;100.00;56616.03;5050011;28;20356;-68
2022/09/12 06:06:54;;;;;;;4.13;3.17;;;;;;;-142.91;100.00;56616.03;5052203;28;20308;-68
2022/09/12 06:09:24;;;;;;;3.50;3.20;;;;;;;-142.91;100.00;56616.03;5048440;28;20201;-68
2022/09/12 06:11:51;;;;;;;3.10;2.90;;;;;;;-142.91;100.00;56616.03;5050870;28;20229;-69
2022/09/12 06:14:18;;;;;;;4.85;3.22;;;;;;;-142.91;100.00;56616.03;5049314;28;20216;-69
2022/09/12 06:16:46;;;;;;;4.10;3.47;;;;;;;-142.91;100.00;56616.03;5049144;28;20217;-68
2022/09/12 06:19:15;;;;;;;3.72;2.70;;;;;;;-142.91;100.00;56616.03;5050314;28;20197;-68
2022/09/12 06:21:42;;;;;;;5.28;2.47;;;;;;;-142.91;100.00;56616.03;5050135;28;20190;-72
2022/09/12 06:24:09;;;;;;;3.22;2.38;;;;;;;-142.91;100.00;56616.03;5049035;28;20270;-68
2022/09/12 06:26:38;;;;;;;3.10;2.53;;;;;;;-142.91;100.00;56616.03;5055720;28;20898;-68
2022/09/12 06:29:05;;;;;;;3.90;2.55;;;;;;;-142.91;100.00;56616.03;5051439;28;20226;-68
2022/09/12 06:31:34;;;;;;;2.50;2.38;;;;;;;-142.91;100.00;56616.03;5056708;28;20229;-68
2022/09/12 06:34:03;;;;;;;8.43;2.67;;;;;;;-142.91;100.00;56616.03;5055972;28;20207;-70
2022/09/12 06:36:31;;;;;;;2.60;2.50;;;;;;;-142.91;100.00;56616.03;5054711;28;20686;-70
2022/09/12 06:39:00;;;;;;;2.60;2.40;;;;;;;-142.91;100.00;56616.03;5049103;28;20861;-70
2022/09/12 06:41:28;;;;;;;3.10;2.90;;;;;;;-142.91;100.00;56616.03;5049295;28;20208;-70
2022/09/12 06:43:57;;;;;;;4.45;3.28;;;;;;;-142.91;100.00;56616.03;5050738;28;20298;-70
2022/09/12 06:46:24;;;;;;;11.13;7.57;;;;;;;-142.91;100.00;56616.03;5050399;28;20201;-70
2022/09/12 06:48:51;;;;;;;7.18;3.65;;;;;;;-142.91;100.00;56616.03;5050195;28;20205;-69
2022/09/12 06:51:19;;;;;;;4.03;3.50;;;;;;;-142.91;100.00;56616.03;5047805;28;20234;-70
2022/09/12 06:53:47;;;;;;;7.95;4.90;;;;;;;-142.91;100.00;56616.03;5048265;28;20208;-69
2022/09/12 06:56:15;;;;;;;5.57;3.60;;;;;;;-142.91;100.00;56616.03;5049527;28;20224;-70
2022/09/12 06:58:43;;;;;;;5.35;4.65;;;;;;;-142.91;100.00;56616.03;5047715;28;20229;-70
2022/09/12 07:01:13;;;;;;;8.25;6.53;;;;;;;-142.91;100.00;56616.03;5048897;28;20255;-69
2022/09/12 07:03:40;;;;;;;6.50;5.05;;;;;;;-142.91;100.00;56616.03;5049441;28;20240;-69
2022/09/12 07:06:09;;;;;;;8.13;4.15;;;;;;;-142.91;100.00;56616.03;5049517;28;20233;-70
2022/09/12 07:08:36;;;;;;;4.32;3.28;;;;;;;-142.91;100.00;56616.03;5047465;28;20284;-68
2022/09/12 07:11:09;;;;;;;3.53;3.28;;;;;;;-142.91;100.00;56616.03;5048508;28;20274;-68
2022/09/12 07:13:36;;;;;;;4.90;4.15;;;;;;;-142.91;100.00;56616.03;5048268;28;20375;-69
2022/09/12 07:16:04;;;;;;;4.45;4.05;;;;;;;-142.91;100.00;56616.03;5047640;28;20275;-69
2022/09/12 07:18:33;;;;;;;4.40;3.58;;;;;;;-142.91;100.00;56616.03;5048723;28;20307;-68
2022/09/12 07:21:01;;;;;;;4.38;4.07;;;;;;;-142.91;100.00;56616.03;5049197;28;20201;-67
2022/09/12 07:23:27;;;;;;;4.35;4.15;;;;;;;-142.91;100.00;56616.03;5046025;28;20198;-66
2022/09/12 07:25:56;;;;;;;3.53;3.33;;;;;;;-142.91;100.00;56616.03;5048016;28;20205;-68
2022/09/12 07:28:23;;;;;;;5.03;4.63;;;;;;;-142.91;100.00;56616.03;5045592;28;20217;-69
2022/09/12 07:30:50;;;;;;;4.38;4.07;;;;;;;-142.91;100.00;56616.03;5051752;28;20205;-69
2022/09/12 07:33:17;;;;;;;6.88;4.28;;;;;;;-142.91;100.00;56616.03;5046701;28;20228;-69
2022/09/12 07:35:45;;;;;;;4.65;4.38;;;;;;;-142.91;100.00;56616.03;5048366;28;20201;-68
2022/09/12 07:38:11;;;;;;;4.70;4.30;;;;;;;-142.91;100.00;56616.03;5046908;28;20197;-67
2022/09/12 07:40:39;;;;;;;4.10;3.90;;;;;;;-142.91;100.00;56616.03;5049075;28;20204;-67
2022/09/12 07:43:06;;;;;;;4.25;4.05;;;;;;;-142.91;100.00;56616.03;5048550;28;20201;-68
2022/09/12 07:45:32;;;;;;;5.15;4.72;;;;;;;-142.91;100.00;56616.03;5048471;28;20210;-67
2022/09/12 07:47:59;;;;;;;4.38;4.15;;;;;;;-142.91;100.00;56616.03;5047070;28;20229;-69
2022/09/12 07:50:26;;;;;;;3.90;3.60;;;;;;;-142.91;100.00;56616.03;5051231;28;20201;-68
2022/09/12 07:52:55;;;;;;;4.55;4.18;;;;;;;-142.91;100.00;56616.03;5048399;28;20225;-68
2022/09/12 07:55:22;;;;;;;3.67;3.45;;;;;;;-142.91;100.00;56616.03;5049460;28;20212;-68
2022/09/12 07:57:49;;;;;;;3.60;3.35;;;;;;;-142.91;100.00;56616.03;5048350;28;20233;-68
2022/09/12 08:00:16;;;;;;;7.68;4.15;;;;;;;-142.91;100.00;56616.03;5048339;28;20286;-68
2022/09/12 08:02:43;;;;;;;4.50;4.10;;;;;;;-142.91;100.00;56616.03;5047663;28;20271;-68
2022/09/12 08:05:10;;;;;;;3.97;3.78;;;;;;;-142.91;100.00;56616.03;5049012;28;20318;-68
2022/09/12 08:07:37;;;;;;;3.97;3.78;;;;;;;-142.91;100.00;56616.03;5047712;28;20278;-67
2022/09/12 08:10:06;;;;;;;4.65;4.35;;;;;;;-142.91;100.00;56616.03;5048236;28;20229;-66
2022/09/12 08:12:33;;;;;;;4.80;4.38;;;;;;;-142.91;100.00;56616.03;5049305;28;20362;-68
2022/09/12 08:15:01;;;;;;;49.17;30.50;;;;;;;-142.91;100.00;56616.03;5048378;28;20292;-68
2022/09/12 08:17:28;;;;;;;38.10;25.20;;;;;;;-142.91;100.00;56616.03;5048271;28;20328;-67
2022/09/12 08:19:55;;;;;;;9.05;8.15;;;;;;;-142.91;100.00;56616.03;5045326;28;20206;-66
2022/09/12 08:22:22;;;;;;;7.97;7.38;;;;;;;-142.91;100.00;56616.03;5045454;28;20985;-66
2022/09/12 08:24:50;;;;;;;7.97;4.82;;;;;;;-142.91;100.00;56616.03;5046155;28;20210;-66
2022/09/12 08:27:18;;;;;;;5.45;4.78;;;;;;;-142.91;100.00;56616.03;5048211;28;20230;-65
2022/09/12 08:29:44;;;;;;;4.40;4.07;;;;;;;-142.91;100.00;56616.03;5047089;28;20213;-65
2022/09/12 08:32:11;;;;;;;5.05;4.75;;;;;;;-142.91;100.00;56616.03;5048634;28;20229;-66
2022/09/12 08:34:38;;;;;;;5.45;5.00;;;;;;;-142.91;100.00;56616.03;5047713;28;20207;-65
2022/09/12 08:37:05;;;;;;;4.82;4.40;;;;;;;-142.91;100.00;56616.03;5046480;28;20219;-66
2022/09/12 08:39:32;;;;;;;6.07;5.68;;;;;;;-142.91;100.00;56616.03;5045212;28;20254;-64
2022/09/12 08:42:02;;;;;;;4.88;4.55;;;;;;;-142.91;100.00;56616.03;5049390;28;20206;-67
2022/09/12 08:44:50;;;;;;;5.78;4.35;;;;;;;-142.91;100.00;56616.03;5049873;28;20699;-67
2022/09/12 08:47:22;;;;;;;5.20;4.15;;;;;;;-142.91;100.00;56616.03;5051391;28;20600;-65
2022/09/12 08:49:56;;;;;;;4.40;4.10;;;;;;;-142.91;100.00;56616.03;5051742;28;20683;-68
2022/09/12 08:52:30;;;;;;;4.15;3.95;;;;;;;-142.91;100.00;56616.03;5052602;28;20229;-68
2022/09/12 08:54:57;;;;;;;4.22;3.70;;;;;;;-142.91;100.00;56616.03;5050586;28;21097;-68
2022/09/12 08:57:24;;;;;;;4.50;4.22;;;;;;;-142.91;100.00;56616.03;5050925;28;20209;-69
2022/09/12 08:59:53;;;;;;;4.22;3.88;;;;;;;-142.91;100.00;56616.03;5051690;28;20231;-69
2022/09/12 09:02:44;;;;;;;5.45;4.95;;;;;;;-142.91;100.00;56616.03;5051551;28;20201;-68
2022/09/12 09:05:21;;;;;;;4.03;3.72;;;;;;;-142.91;100.00;56616.03;5051183;28;20237;-68
2022/09/12 09:08:06;;;;;;;4.78;4.15;;;;;;;-142.91;100.00;56616.03;5051162;28;20216;-69
2022/09/12 09:10:41;;;;;;;6.05;4.55;;;;;;;-142.91;100.00;56616.03;5050835;28;20251;-70
2022/09/12 09:14:46;;;;;;;5.03;4.72;;;;;;;-142.91;100.00;56616.03;5051029;28;20609;-69
2022/09/12 09:16:12;;;;;;;6.85;5.18;;;;;;;-142.91;100.00;56616.03;5050868;28;20775;-69
2022/09/12 09:18:43;;;;;;;10.40;4.80;;;;;;;-142.91;100.00;56616.03;5051449;28;20235;-67
2022/09/12 09:21:20;;;;;;;7.22;6.63;;;;;;;-142.91;100.00;56616.03;5060392;22;20565;-68
2022/09/12 09:23:54;;;;;;;5.28;4.80;;;;;;;-142.91;100.00;56616.03;4990054;28;22267;-67
2022/09/12 09:26:28;;;;;;;5.22;4.75;;;;;;;-142.91;100.00;56616.03;4991150;28;20215;-67
2022/09/12 09:29:00;;;;;;;4.93;4.53;;;;;;;-142.91;100.00;56616.03;4989361;28;20207;-68
2022/09/12 09:31:38;;;;;;;4.75;4.45;;;;;;;-142.91;100.00;56616.03;4988643;28;20290;-68
2022/09/12 09:34:14;;;;;;;4.90;4.55;;;;;;;-142.91;100.00;56616.03;4990420;28;20227;-68
2022/09/12 09:36:49;;;;;;;4.72;4.53;;;;;;;-142.91;100.00;56616.03;4989955;28;20294;-68
2022/09/12 09:39:25;;;;;;;5.05;4.75;;;;;;;-142.91;100.00;56616.03;4987397;28;20199;-68
2022/09/12 09:42:08;;;;;;;6.82;3.83;;;;;;;-142.91;100.00;56616.03;4989036;28;20203;-68
2022/09/12 09:44:36;;;;;;;5.13;4.68;;;;;;;-142.91;100.00;56616.03;4988983;28;20874;-69
2022/09/12 09:47:04;;;;;;;4.43;4.15;;;;;;;-142.91;100.00;56616.03;4988137;28;20218;-69
2022/09/12 09:49:34;;;;;;;5.00;4.70;;;;;;;-142.91;100.00;56616.03;4989994;28;20191;-70
2022/09/12 09:52:02;;;;;;;5.25;4.32;;;;;;;-142.91;100.00;56616.03;4990023;28;20236;-68
2022/09/12 09:54:35;;;;;;;4.97;4.57;;;;;;;-142.91;100.00;56616.03;4990125;28;20289;-69
2022/09/12 09:57:03;;;;;;;4.97;4.57;;;;;;;-142.91;100.00;56616.03;4991046;28;20207;-68
2022/09/12 09:59:33;;;;;;;5.50;5.10;;;;;;;-142.91;100.00;56616.03;4991837;28;20211;-70
2022/09/12 10:02:03;;;;;;;4.40;3.78;;;;;;;-142.91;100.00;56616.03;4990614;28;20227;-69
2022/09/12 10:04:34;;;;;;;5.00;3.92;;;;;;;-142.91;100.00;56616.03;4991844;28;20203;-68
2022/09/12 10:07:03;;;;;;;3.90;3.53;;;;;;;-142.91;100.00;56616.03;4975963;28;20228;-68
2022/09/12 10:09:32;;;;;;;4.03;3.83;;;;;;;-142.91;100.00;56616.03;4970769;28;20224;-70
2022/09/12 10:12:01;;;;;;;3.88;3.67;;;;;;;-142.91;100.00;56616.03;4972564;28;20208;-69
2022/09/12 10:14:33;;;;;;;5.05;4.57;;;;;;;-142.91;100.00;56616.03;4971803;28;20213;-70
2022/09/12 10:17:02;;;;;;;4.30;4.10;;;;;;;-142.91;100.00;56616.03;4973082;28;20216;-70
2022/09/12 10:19:36;;;;;;;3.90;3.70;;;;;;;-142.91;100.00;56616.03;4970974;28;20215;-68
2022/09/12 10:22:05;;;;;;;4.43;4.22;;;;;;;-142.91;100.00;56616.03;4970732;28;20330;-68
2022/09/12 10:24:36;;;;;;;5.60;5.20;;;;;;;-142.91;100.00;56616.03;4972189;28;20591;-68
2022/09/12 10:27:13;;;;;;;5.00;4.70;;;;;;;-142.91;100.00;56616.03;4970762;28;22296;-69
2022/09/12 10:29:44;;;;;;;5.88;5.38;;;;;;;-142.91;100.00;56616.03;4971419;28;20660;-68
2022/09/12 10:32:13;;;;;;;4.55;4.35;;;;;;;-142.91;100.00;56616.03;4973302;28;20207;-68
2022/09/12 10:34:44;;;;;;;5.80;5.40;;;;;;;-142.91;100.00;56616.03;4972743;28;20212;-68
2022/09/12 10:37:18;;;;;;;4.53;4.32;;;;;;;-142.91;100.00;56616.03;4971771;28;20686;-68
2022/09/12 10:39:52;;;;;;;9.20;4.97;;;;;;;-142.91;100.00;56616.03;4973181;28;20207;-68
2022/09/12 10:42:44;;;;;;;4.55;4.22;;;;;;;-142.91;100.00;56616.03;4970223;28;20294;-68
2022/09/12 10:45:24;;;;;;;4.65;4.35;;;;;;;-142.91;100.00;56616.03;4971795;28;20220;-68
2022/09/12 10:47:51;;;;;;;4.13;3.88;;;;;;;-142.91;100.00;56616.03;4968799;28;20293;-69
2022/09/12 10:50:29;;;;;;;4.63;4.43;;;;;;;-142.91;100.00;56616.03;4968991;28;20716;-68
2022/09/12 10:53:12;;;;;;;3.97;3.78;;;;;;;-142.91;100.00;56616.03;4971553;28;20228;-68
2022/09/12 10:55:42;;;;;;;7.07;4.10;;;;;;;-142.91;100.00;56616.03;4970485;28;20212;-71
2022/09/12 10:58:30;;;;;;;4.97;4.68;;;;;;;-142.91;100.00;56616.03;4970302;28;20441;-69
2022/09/12 11:01:08;;;;;;;4.95;4.72;;;;;;;-142.91;100.00;56616.03;4972449;28;20212;-68
2022/09/12 11:03:50;;;;;;;5.47;5.18;;;;;;;-142.91;100.00;56616.03;4969745;28;20203;-68
2022/09/12 11:06:28;;;;;;;5.68;5.18;;;;;;;-142.91;100.00;56616.03;4972324;28;20248;-68
2022/09/12 11:09:05;;;;;;;6.35;6.00;;;;;;;-142.91;100.00;56616.03;4969633;28;20702;-71
2022/09/12 11:11:58;;;;;;;7.20;6.63;;;;;;;-142.91;100.00;56616.03;4970770;28;20199;-68
2022/09/12 11:14:46;;;;;;;5.68;5.38;;;;;;;-142.91;100.00;56616.03;4971751;28;20544;-68
2022/09/12 11:17:26;;;;;;;4.65;4.45;;;;;;;-142.91;100.00;56616.03;4970722;28;21814;-68
2022/09/12 11:20:17;;;;;;;5.25;4.57;;;;;;;-142.91;100.00;56616.03;4971032;28;20215;-69
2022/09/12 11:23:07;;;;;;;32.92;23.65;;;;;;;-142.91;100.00;56616.03;4967984;28;20826;-69
2022/09/12 11:25:41;;;;;;;69.22;41.33;;;;;;;-142.91;100.00;56616.03;4970502;28;20212;-69